Time;durP1;ratioP1;P1;durP2;ratioP2;P2;SDS_P1;SDS_P2;PMS_P1;PMS_P2;Temp;Humidity;BMP_temperature;BMP_pressure;BME280_temperature;BME280_humidity;BME280_pressure;Samples;Min_cycle;Max_cycle;Signal;HPM_P1;HPM_P2
2022/08/22 00:01:23;;;;;;;11.57;6.78;;;15.10;99.90;;;;;;5108246;28;20046;-65
2022/08/22 00:03:57;;;;;;;9.40;6.50;;;15.10;99.90;;;;;;5098465;28;20480;-66
2022/08/22 00:06:29;;;;;;;15.18;7.05;;;15.10;99.90;;;;;;5116916;28;20035;-65
2022/08/22 00:09:04;;;;;;;9.90;7.05;;;15.10;99.90;;;;;;5116917;28;20602;-65
2022/08/22 00:11:42;;;;;;;11.77;8.07;;;15.00;99.90;;;;;;5114406;28;20122;-65
2022/08/22 00:14:40;;;;;;;14.48;7.22;;;15.00;99.90;;;;;;5098577;28;20196;-66
2022/08/22 00:17:30;;;;;;;11.75;6.40;;;14.90;99.90;;;;;;5116648;28;20499;-65
2022/08/22 00:20:02;;;;;;;13.85;7.10;;;14.90;99.90;;;;;;5116588;28;20048;-65
2022/08/22 00:22:36;;;;;;;12.10;6.95;;;14.80;99.90;;;;;;5098138;28;20644;-65
2022/08/22 00:25:02;;;;;;;15.30;8.88;;;14.90;99.90;;;;;;5081101;28;20052;-65
2022/08/22 00:27:44;;;;;;;10.50;6.47;;;14.80;99.90;;;;;;5116280;28;20044;-66
2022/08/22 00:30:13;;;;;;;13.10;7.05;;;14.80;99.90;;;;;;5081323;28;20048;-66
2022/08/22 00:32:50;;;;;;;11.48;6.90;;;14.80;99.90;;;;;;5116293;28;20049;-65
2022/08/22 00:35:22;;;;;;;9.43;6.45;;;14.80;99.90;;;;;;5097983;28;20039;-66
2022/08/22 00:38:27;;;;;;;13.00;6.80;;;14.80;99.90;;;;;;5098138;28;20039;-65
2022/08/22 00:41:32;;;;;;;9.07;6.75;;;14.80;99.90;;;;;;5040539;28;20047;-65
2022/08/22 00:44:35;;;;;;;9.52;6.18;;;14.80;99.90;;;;;;5043531;28;20047;-66
2022/08/22 00:47:19;;;;;;;13.85;7.60;;;14.80;99.90;;;;;;5080733;28;20108;-65
2022/08/22 00:49:57;;;;;;;13.93;7.38;;;14.80;99.90;;;;;;5097622;28;20043;-65
2022/08/22 00:52:36;;;;;;;13.90;8.15;;;14.80;99.90;;;;;;5080736;28;20664;-65
2022/08/22 00:55:30;;;;;;;10.68;8.00;;;14.80;99.90;;;;;;5096735;28;20046;-65
2022/08/22 00:58:23;;;;;;;14.48;6.88;;;14.70;99.90;;;;;;5097671;28;20406;-65
2022/08/22 01:01:06;;;;;;;79.47;7.47;;;14.70;99.90;;;;;;5115669;28;20086;-66
2022/08/22 01:03:47;;;;;;;9.95;5.38;;;14.60;99.90;;;;;;5097758;28;20040;-65
2022/08/22 01:06:31;;;;;;;9.05;5.97;;;14.50;99.90;;;;;;5097237;28;20045;-66
2022/08/22 01:09:54;;;;;;;10.63;7.03;;;14.50;99.90;;;;;;5097319;28;20040;-65
2022/08/22 01:12:54;;;;;;;12.60;6.90;;;14.40;99.90;;;;;;4994025;28;20085;-65
2022/08/22 01:15:25;;;;;;;11.57;8.40;;;14.40;99.90;;;;;;4996404;28;20134;-65
2022/08/22 01:18:28;;;;;;;13.02;8.63;;;14.40;99.90;;;;;;5087733;28;20054;-65
2022/08/22 01:21:15;;;;;;;12.45;8.50;;;14.40;99.90;;;;;;5058796;28;20465;-65
2022/08/22 01:23:55;;;;;;;11.60;8.00;;;14.50;99.90;;;;;;5097036;28;20039;-65
2022/08/22 01:26:39;;;;;;;17.63;10.23;;;14.50;99.90;;;;;;5115269;28;20428;-65
2022/08/22 01:29:29;;;;;;;15.13;9.27;;;14.50;99.90;;;;;;5097176;28;20058;-65
2022/08/22 01:32:14;;;;;;;;;;;14.40;99.90;;;;;;5097358;28;20046;-65
2022/08/22 01:35:13;;;;;;;14.32;8.65;;;14.30;99.90;;;;;;5080024;28;19915;-65
2022/08/22 01:37:54;;;;;;;9.50;5.72;;;14.30;99.90;;;;;;5114864;28;20039;-65
2022/08/22 01:40:45;;;;;;;9.13;6.97;;;14.30;99.90;;;;;;5115046;28;20031;-65
2022/08/22 01:43:26;;;;;;;205.82;20.85;;;14.20;99.90;;;;;;5079841;28;20050;-65
2022/08/22 01:46:10;;;;;;;13.63;7.15;;;14.10;99.90;;;;;;5096521;28;20043;-65
2022/08/22 01:48:48;;;;;;;5.65;3.42;;;14.10;99.90;;;;;;5096418;28;20040;-65
2022/08/22 01:51:22;;;;;;;8.80;6.68;;;14.00;99.90;;;;;;5096455;28;20525;-65
2022/08/22 01:54:02;;;;;;;13.18;8.90;;;14.00;99.90;;;;;;5096393;28;20469;-65
2022/08/22 01:56:31;;;;;;;;;;;14.00;99.90;;;;;;5096730;28;20043;-65
2022/08/22 01:59:01;;;;;;;7.90;4.90;;;14.00;99.90;;;;;;5096454;28;20367;-65
2022/08/22 02:01:38;;;;;;;8.00;4.70;;;14.10;99.90;;;;;;5096366;28;20043;-65
2022/08/22 02:04:15;;;;;;;7.20;5.05;;;14.00;99.90;;;;;;5096226;28;20505;-65
2022/08/22 02:07:05;;;;;;;6.15;4.35;;;14.00;99.90;;;;;;5095899;28;20044;-65
2022/08/22 02:09:30;;;;;;;6.75;4.30;;;13.90;99.90;;;;;;5114332;28;20035;-65
2022/08/22 02:12:18;;;;;;;8.45;6.07;;;13.90;99.90;;;;;;5077041;28;20092;-65
2022/08/22 02:14:59;;;;;;;13.40;7.35;;;13.90;99.90;;;;;;5096125;28;20050;-65
2022/08/22 02:17:34;;;;;;;11.23;7.60;;;13.90;99.90;;;;;;5095972;28;20132;-65
2022/08/22 02:20:09;;;;;;;11.27;6.75;;;13.80;99.90;;;;;;5095801;28;20036;-65
2022/08/22 02:22:40;;;;;;;10.25;7.65;;;13.80;99.90;;;;;;5095905;28;20499;-65
2022/08/22 02:25:12;;;;;;;10.10;6.93;;;13.80;99.90;;;;;;5114078;28;20134;-65
2022/08/22 02:27:56;;;;;;;11.57;7.93;;;13.80;99.90;;;;;;5095706;28;20039;-65
2022/08/22 02:30:42;;;;;;;11.68;8.10;;;13.80;99.90;;;;;;5095788;28;20043;-65
2022/08/22 02:33:20;;;;;;;10.25;6.90;;;13.80;99.90;;;;;;5095781;28;20071;-65
2022/08/22 02:35:49;;;;;;;8.27;6.07;;;13.80;99.90;;;;;;5078689;28;20131;-65
2022/08/22 02:38:26;;;;;;;12.05;8.20;;;13.80;99.90;;;;;;5113738;28;20036;-65
2022/08/22 02:41:09;;;;;;;17.00;10.48;;;13.70;99.90;;;;;;5076626;28;20043;-65
2022/08/22 02:43:55;;;;;;;10.73;7.43;;;13.80;99.90;;;;;;5095423;28;20075;-65
2022/08/22 02:46:31;;;;;;;12.77;7.65;;;13.80;99.90;;;;;;5113597;28;20058;-65
2022/08/22 02:49:15;;;;;;;15.82;9.02;;;13.70;99.90;;;;;;5095578;28;20399;-65
2022/08/22 02:52:10;;;;;;;8.40;7.03;;;13.60;99.90;;;;;;5113730;28;20031;-64
2022/08/22 02:54:52;;;;;;;12.68;8.32;;;13.60;99.90;;;;;;5078423;28;20043;-64
2022/08/22 02:57:28;;;;;;;14.90;7.47;;;13.60;99.90;;;;;;5095233;28;20471;-65
2022/08/22 03:00:27;;;;;;;12.48;7.20;;;13.60;99.90;;;;;;5095191;28;20039;-64
2022/08/22 03:03:13;;;;;;;10.18;6.95;;;13.70;99.90;;;;;;5095658;28;20043;-64
2022/08/22 03:05:45;;;;;;;9.35;6.30;;;13.60;99.90;;;;;;5095197;28;20043;-65
2022/08/22 03:08:32;;;;;;;6.10;4.60;;;13.60;99.90;;;;;;5113277;28;20508;-65
2022/08/22 03:11:23;;;;;;;7.55;5.10;;;13.60;99.90;;;;;;5093085;28;20052;-64
2022/08/22 03:14:10;;;;;;;5.53;3.47;;;13.60;99.90;;;;;;5095434;28;20082;-65
2022/08/22 03:16:59;;;;;;;4.35;2.90;;;13.50;99.90;;;;;;5078232;28;20548;-64
2022/08/22 03:19:51;;;;;;;5.38;3.70;;;13.40;99.90;;;;;;5094733;28;20043;-65
2022/08/22 03:22:36;;;;;;;8.82;4.72;;;13.30;99.90;;;;;;5078199;28;20101;-65
2022/08/22 03:25:20;;;;;;;7.18;5.32;;;13.30;99.90;;;;;;5095225;28;20396;-65
2022/08/22 03:28:00;;;;;;;10.52;5.45;;;13.30;99.90;;;;;;5113163;28;20136;-65
2022/08/22 03:30:49;;;;;;;7.97;4.05;;;13.30;99.90;;;;;;5113103;28;20039;-65
2022/08/22 03:33:30;;;;;;;4.88;3.10;;;13.30;99.90;;;;;;5080145;28;20043;-65
2022/08/22 03:36:05;;;;;;;4.97;4.07;;;13.30;99.90;;;;;;5094896;28;20043;-65
2022/08/22 03:38:31;;;;;;;6.35;3.25;;;13.30;99.90;;;;;;5113042;28;20400;-65
2022/08/22 03:40:56;;;;;;;6.53;4.95;;;13.30;99.90;;;;;;5092819;28;20047;-65
2022/08/22 03:43:50;;;;;;;6.97;4.10;;;13.20;99.90;;;;;;5113280;28;20504;-65
2022/08/22 03:46:43;;;;;;;9.40;5.47;;;13.20;99.90;;;;;;5113074;28;20392;-65
2022/08/22 03:49:37;;;;;;;8.85;6.50;;;13.20;99.90;;;;;;5112956;28;20439;-65
2022/08/22 03:52:24;;;;;;;11.73;8.45;;;13.20;99.90;;;;;;5111858;28;20119;-65
2022/08/22 03:55:13;;;;;;;17.67;8.45;;;13.20;99.90;;;;;;5112992;28;20089;-65
2022/08/22 03:57:51;;;;;;;15.93;7.78;;;13.30;99.90;;;;;;5111893;28;20040;-65
2022/08/22 04:00:32;;;;;;;9.95;6.85;;;13.30;99.90;;;;;;5111858;28;20121;-65
2022/08/22 04:03:34;;;;;;;7.90;4.55;;;13.20;99.90;;;;;;5111909;28;20498;-65
2022/08/22 04:06:21;;;;;;;7.30;4.50;;;13.20;99.90;;;;;;5094644;28;20039;-64
2022/08/22 04:09:05;;;;;;;7.18;5.03;;;13.10;99.90;;;;;;5111766;28;20388;-64
2022/08/22 04:12:12;;;;;;;8.45;6.35;;;13.00;99.90;;;;;;5110387;28;20058;-64
2022/08/22 04:14:58;;;;;;;14.73;7.30;;;13.00;99.90;;;;;;5112926;28;20040;-64
2022/08/22 04:17:40;;;;;;;11.25;7.20;;;13.00;99.90;;;;;;5111744;28;20478;-64
2022/08/22 04:20:26;;;;;;;11.52;7.57;;;12.90;99.90;;;;;;5111487;28;20043;-64
2022/08/22 04:23:00;;;;;;;16.90;8.73;;;12.90;99.90;;;;;;5112625;28;20048;-64
2022/08/22 04:25:35;;;;;;;9.15;7.05;;;12.90;99.90;;;;;;5094621;28;20442;-64
2022/08/22 04:28:24;;;;;;;9.85;7.20;;;12.90;99.90;;;;;;5111294;28;20040;-64
2022/08/22 04:31:12;;;;;;;11.30;6.30;;;12.90;99.90;;;;;;5114845;28;20043;-64
2022/08/22 04:34:03;;;;;;;8.98;5.40;;;12.90;99.90;;;;;;5098111;28;20515;-64
2022/08/22 04:36:58;;;;;;;5.43;3.55;;;12.90;99.90;;;;;;5116337;28;20050;-64
2022/08/22 04:39:36;;;;;;;3.90;2.70;;;12.80;99.90;;;;;;5114849;28;20506;-65
2022/08/22 04:42:18;;;;;;;5.80;3.63;;;12.90;99.90;;;;;;5112577;28;20579;-64
2022/08/22 04:44:51;;;;;;;3.40;3.10;;;12.90;99.90;;;;;;5097832;28;20502;-65
2022/08/22 04:47:38;;;;;;;4.97;4.18;;;12.90;99.90;;;;;;5114749;28;20093;-64
2022/08/22 04:50:35;;;;;;;4.68;3.85;;;12.90;99.90;;;;;;5098025;28;20114;-64
2022/08/22 04:53:22;;;;;;;5.50;4.22;;;12.90;99.90;;;;;;5097848;28;20031;-64
2022/08/22 04:56:06;;;;;;;5.10;4.00;;;12.90;99.90;;;;;;5097550;28;20121;-64
2022/08/22 04:58:39;;;;;;;7.35;5.03;;;12.90;99.90;;;;;;5097851;28;20241;-64
2022/08/22 05:01:22;;;;;;;9.35;6.88;;;12.90;99.90;;;;;;5115855;28;20070;-64
2022/08/22 05:03:56;;;;;;;9.10;6.15;;;12.90;99.90;;;;;;5115832;28;20095;-64
2022/08/22 05:06:26;;;;;;;9.52;6.03;;;12.90;99.90;;;;;;5097253;28;20036;-64
2022/08/22 05:08:55;;;;;;;8.73;6.57;;;13.00;99.90;;;;;;5097407;28;20509;-64
2022/08/22 05:11:22;;;;;;;12.32;8.93;;;13.00;99.90;;;;;;5094881;28;20498;-64
2022/08/22 05:13:56;;;;;;;9.13;5.93;;;13.00;99.90;;;;;;5097441;28;20419;-64
2022/08/22 05:16:38;;;;;;;26.88;4.88;;;13.00;99.90;;;;;;5097140;28;20051;-65
2022/08/22 05:19:29;;;;;;;10.95;5.85;;;13.00;99.90;;;;;;5097084;28;20047;-65
2022/08/22 05:21:56;;;;;;;10.90;5.25;;;12.80;99.90;;;;;;5097259;28;20050;-64
2022/08/22 05:24:22;;;;;;;10.85;7.03;;;12.70;99.90;;;;;;5097300;28;20130;-65
2022/08/22 05:26:52;;;;;;;8.60;6.30;;;12.60;99.90;;;;;;5097053;28;20138;-65
2022/08/22 05:29:27;;;;;;;10.77;7.88;;;12.60;99.90;;;;;;5080068;28;20578;-65
2022/08/22 05:32:04;;;;;;;15.38;8.95;;;12.70;99.90;;;;;;5097081;28;20032;-65
2022/08/22 05:34:37;;;;;;;19.20;9.73;;;12.70;99.90;;;;;;5080239;28;20038;-65
2022/08/22 05:37:16;;;;;;;19.73;9.52;;;12.80;99.90;;;;;;5097062;28;20043;-65
2022/08/22 05:39:52;;;;;;;15.20;9.88;;;12.80;99.90;;;;;;5096917;28;20051;-65
2022/08/22 05:42:26;;;;;;;14.25;9.50;;;12.90;99.90;;;;;;5112416;28;20475;-65
2022/08/22 05:44:54;;;;;;;15.95;10.05;;;13.00;99.90;;;;;;5115069;28;20043;-64
2022/08/22 05:47:35;;;;;;;17.90;9.52;;;13.10;99.90;;;;;;5114567;28;20036;-65
2022/08/22 05:50:05;;;;;;;15.70;10.90;;;13.10;99.90;;;;;;5113544;28;20122;-65
2022/08/22 05:53:09;;;;;;;14.95;9.80;;;13.20;99.90;;;;;;5113711;28;20039;-65
2022/08/22 05:55:48;;;;;;;13.65;8.50;;;13.30;99.90;;;;;;5113390;28;20047;-65
2022/08/22 05:58:38;;;;;;;10.93;8.40;;;13.40;99.90;;;;;;5096364;28;20044;-65
2022/08/22 06:01:10;;;;;;;;;;;13.50;99.90;;;;;;5113671;28;20046;-65
2022/08/22 06:03:58;;;;;;;11.88;7.97;;;13.60;99.90;;;;;;5114638;28;19915;-65
2022/08/22 06:06:25;;;;;;;12.95;8.98;;;13.70;99.90;;;;;;5114363;28;20085;-65
2022/08/22 06:09:15;;;;;;;13.93;8.63;;;13.90;99.90;;;;;;5096301;28;20376;-65
2022/08/22 06:12:10;;;;;;;11.68;7.53;;;13.90;99.90;;;;;;5093868;28;20055;-65
2022/08/22 06:14:42;;;;;;;11.10;7.75;;;14.00;99.90;;;;;;5077484;28;20040;-65
2022/08/22 06:17:19;;;;;;;9.23;6.65;;;14.10;99.90;;;;;;5095904;28;20051;-65
2022/08/22 06:19:48;;;;;;;13.38;8.15;;;14.20;99.90;;;;;;5096093;28;20084;-65
2022/08/22 06:22:26;;;;;;;12.00;8.57;;;14.30;99.90;;;;;;5114343;28;20043;-65
2022/08/22 06:25:04;;;;;;;11.27;8.40;;;14.30;99.90;;;;;;5095720;28;20576;-65
2022/08/22 06:27:31;;;;;;;14.05;8.93;;;14.40;99.90;;;;;;5074978;28;20499;-65
2022/08/22 06:29:59;;;;;;;15.93;9.90;;;14.50;99.90;;;;;;5078655;28;20119;-65
2022/08/22 06:32:54;;;;;;;14.00;9.52;;;14.60;99.90;;;;;;5113565;28;20571;-65
2022/08/22 06:35:28;;;;;;;19.85;9.75;;;14.70;99.90;;;;;;5092828;28;20135;-65
2022/08/22 06:37:59;;;;;;;13.60;8.98;;;14.80;99.90;;;;;;5113588;28;20044;-65
2022/08/22 06:40:27;;;;;;;14.32;9.30;;;14.90;99.90;;;;;;5095624;28;20043;-65
2022/08/22 06:42:57;;;;;;;12.27;8.40;;;15.00;99.90;;;;;;5093147;28;20044;-65
2022/08/22 06:45:31;;;;;;;13.77;9.18;;;15.10;99.90;;;;;;5113671;28;20039;-65
2022/08/22 06:48:06;;;;;;;17.58;8.93;;;15.20;99.90;;;;;;5113461;28;20415;-65
2022/08/22 06:50:38;;;;;;;14.63;8.48;;;15.30;99.90;;;;;;5095209;28;20130;-64
2022/08/22 06:53:18;;;;;;;15.13;8.85;;;15.40;99.90;;;;;;5113052;28;20027;-64
2022/08/22 06:55:55;;;;;;;;;;;15.50;99.90;;;;;;5095805;28;20060;-65
2022/08/22 06:58:32;;;;;;;14.43;8.50;;;15.60;99.90;;;;;;5095169;28;19915;-65
2022/08/22 07:01:23;;;;;;;15.07;9.00;;;15.70;99.90;;;;;;5077554;28;20126;-65
2022/08/22 07:03:57;;;;;;;16.80;8.52;;;15.80;99.90;;;;;;5094240;28;20509;-65
2022/08/22 07:06:33;;;;;;;13.27;8.07;;;15.90;99.90;;;;;;5094108;28;20075;-65
2022/08/22 07:08:59;;;;;;;11.40;8.25;;;16.00;99.90;;;;;;5094195;28;20042;-65
2022/08/22 07:11:27;;;;;;;10.60;7.65;;;16.10;99.90;;;;;;5091821;28;20048;-65
2022/08/22 07:13:57;;;;;;;14.43;9.52;;;16.20;99.90;;;;;;5112341;28;20476;-65
2022/08/22 07:16:39;;;;;;;13.48;8.32;;;16.30;99.90;;;;;;5093844;28;20043;-65
2022/08/22 07:19:21;;;;;;;13.82;8.40;;;16.40;99.90;;;;;;5094300;28;20058;-65
2022/08/22 07:21:47;;;;;;;15.82;7.70;;;16.50;99.90;;;;;;5093946;28;20519;-65
2022/08/22 07:24:18;;;;;;;13.55;7.75;;;16.70;99.90;;;;;;5112169;28;20055;-65
2022/08/22 07:26:55;;;;;;;12.18;7.78;;;16.80;99.90;;;;;;5093999;28;20050;-65
2022/08/22 07:29:32;;;;;;;14.93;7.15;;;16.90;99.90;;;;;;5077208;28;20075;-65
2022/08/22 07:32:11;;;;;;;12.68;7.10;;;17.10;99.90;;;;;;5094042;28;20048;-65
2022/08/22 07:34:48;;;;;;;12.23;7.53;;;17.30;99.90;;;;;;5094328;28;20508;-66
2022/08/22 07:37:24;;;;;;;12.48;7.70;;;17.50;99.90;;;;;;5094281;28;20118;-66
2022/08/22 07:40:08;;;;;;;10.40;5.90;;;17.70;99.90;;;;;;5112923;28;20105;-66
2022/08/22 07:43:06;;;;;;;9.48;5.82;;;18.00;99.90;;;;;;5074628;28;20092;-66
2022/08/22 07:45:35;;;;;;;13.05;5.78;;;18.30;99.90;;;;;;5112169;28;20130;-66
2022/08/22 07:48:12;;;;;;;13.23;6.82;;;18.50;99.90;;;;;;5112001;28;20423;-66
2022/08/22 07:50:55;;;;;;;10.98;6.18;;;18.70;99.90;;;;;;5112058;28;20114;-66
2022/08/22 07:53:32;;;;;;;14.30;6.43;;;18.90;99.90;;;;;;5094149;28;20028;-66
2022/08/22 07:56:01;;;;;;;10.05;5.68;;;19.10;99.90;;;;;;5076775;28;20514;-66
2022/08/22 07:58:30;;;;;;;10.63;6.38;;;19.40;99.90;;;;;;5093829;28;20128;-66
2022/08/22 08:00:57;;;;;;;13.52;5.82;;;19.60;99.90;;;;;;5093721;28;20039;-66
2022/08/22 08:03:26;;;;;;;12.20;6.47;;;19.70;99.90;;;;;;5112941;28;20038;-66
2022/08/22 08:05:52;;;;;;;10.80;6.43;;;19.80;99.90;;;;;;5098294;28;20043;-65
2022/08/22 08:08:21;;;;;;;10.90;5.80;;;19.80;99.90;;;;;;5098507;28;20046;-66
2022/08/22 08:10:49;;;;;;;8.73;5.93;;;19.90;99.90;;;;;;5080989;28;20070;-66
2022/08/22 08:13:34;;;;;;;13.57;6.22;;;20.00;99.90;;;;;;5116007;28;20051;-66
2022/08/22 08:16:04;;;;;;;10.70;5.45;;;20.30;99.90;;;;;;5085908;28;20079;-66
2022/08/22 08:18:33;;;;;;;13.30;5.20;;;20.80;99.90;;;;;;5077320;28;20044;-66
2022/08/22 08:21:04;;;;;;;13.87;5.73;;;21.40;99.90;;;;;;5077212;28;20044;-66
2022/08/22 08:23:40;;;;;;;10.75;5.53;;;21.90;99.90;;;;;;5077065;28;20305;-66
2022/08/22 08:26:11;;;;;;;10.05;5.28;;;22.30;99.90;;;;;;5077234;28;20048;-65
2022/08/22 08:28:47;;;;;;;11.88;4.88;;;22.60;99.90;;;;;;5082645;28;20043;-66
2022/08/22 08:31:23;;;;;;;12.48;5.15;;;22.80;99.90;;;;;;5095083;28;20044;-66
2022/08/22 08:33:57;;;;;;;14.35;5.28;;;22.90;99.90;;;;;;5087778;28;20385;-66
2022/08/22 08:36:33;;;;;;;9.90;5.45;;;22.80;99.90;;;;;;5096950;28;20043;-66
2022/08/22 08:39:23;;;;;;;6.35;5.05;;;22.70;99.90;;;;;;5096752;28;20306;-66
2022/08/22 08:42:10;;;;;;;10.27;5.50;;;22.30;99.90;;;;;;5094611;28;20518;-66
2022/08/22 08:44:57;;;;;;;12.02;5.00;;;22.10;99.90;;;;;;5096989;28;20081;-66
2022/08/22 08:47:35;;;;;;;11.45;4.90;;;22.30;99.90;;;;;;5096714;28;20036;-66
2022/08/22 08:50:19;;;;;;;12.23;4.28;;;22.80;99.90;;;;;;5096659;28;20073;-66
2022/08/22 08:53:04;;;;;;;10.32;4.90;;;23.20;99.90;;;;;;5114690;28;20039;-66
2022/08/22 08:55:56;;;;;;;12.20;4.40;;;23.70;99.90;;;;;;5096535;28;20043;-66
2022/08/22 08:58:43;;;;;;;9.80;4.32;;;24.10;99.90;;;;;;5115004;28;20039;-66
2022/08/22 09:01:33;;;;;;;10.70;3.55;;;24.50;99.90;;;;;;5096716;28;20039;-66
2022/08/22 09:04:23;;;;;;;9.57;3.55;;;24.90;99.90;;;;;;5114627;28;20511;-67
2022/08/22 09:07:07;;;;;;;10.15;3.75;;;25.10;99.90;;;;;;5114342;28;20043;-67
2022/08/22 09:09:42;;;;;;;6.88;3.03;;;25.20;99.90;;;;;;5114643;28;20119;-66
2022/08/22 09:12:32;;;;;;;7.78;3.15;;;25.60;99.90;;;;;;5094399;28;20492;-66
2022/08/22 09:15:01;;;;;;;5.38;2.03;;;25.80;99.90;;;;;;5114414;28;20040;-66
2022/08/22 09:18:00;;;;;;;5.80;1.40;;;25.90;99.90;;;;;;5114473;28;20040;-66
2022/08/22 09:20:26;;;;;;;7.80;2.00;;;26.00;99.90;;;;;;5079209;28;20286;-66
2022/08/22 09:23:29;;;;;;;7.35;1.55;;;26.10;99.90;;;;;;5074851;28;20077;-67
2022/08/22 09:26:09;;;;;;;6.35;1.75;;;26.10;99.90;;;;;;5076660;28;20044;-67
2022/08/22 09:29:12;;;;;;;5.50;2.13;;;26.20;99.90;;;;;;5076122;28;20484;-67
2022/08/22 09:31:53;;;;;;;4.35;1.73;;;26.50;99.90;;;;;;4988647;28;20053;-67
2022/08/22 09:34:28;;;;;;;5.45;1.98;;;26.80;99.60;;;;;;5094844;28;20035;-67
2022/08/22 09:37:15;;;;;;;5.07;1.92;;;27.10;98.30;;;;;;5094184;28;20488;-67
2022/08/22 09:40:14;;;;;;;7.07;2.80;;;27.30;98.70;;;;;;5076427;28;20384;-67
2022/08/22 09:43:01;;;;;;;5.63;2.67;;;27.50;97.70;;;;;;5084702;28;20100;-67
2022/08/22 09:45:39;;;;;;;6.85;1.90;;;27.40;97.20;;;;;;5070953;28;20032;-67
2022/08/22 09:48:33;;;;;;;7.90;2.22;;;27.30;96.10;;;;;;5093105;28;20040;-67
2022/08/22 09:51:33;;;;;;;8.85;2.45;;;27.20;94.40;;;;;;5093078;28;20100;-67
2022/08/22 09:54:23;;;;;;;8.02;2.42;;;26.80;95.80;;;;;;5059220;28;20040;-67
2022/08/22 09:57:09;;;;;;;9.50;2.70;;;26.30;96.90;;;;;;5075950;28;20036;-67
2022/08/22 10:00:12;;;;;;;5.82;2.25;;;26.40;96.30;;;;;;5058801;28;20051;-66
2022/08/22 10:03:03;;;;;;;7.55;1.90;;;26.60;95.60;;;;;;5058608;28;20093;-67
2022/08/22 10:06:01;;;;;;;5.75;1.77;;;26.80;96.00;;;;;;5092895;28;20500;-67
2022/08/22 10:08:38;;;;;;;7.17;2.40;;;26.60;94.20;;;;;;5075255;28;20031;-66
2022/08/22 10:11:20;;;;;;;6.80;2.13;;;26.40;95.00;;;;;;5090712;28;20052;-67
2022/08/22 10:13:51;;;;;;;7.90;2.10;;;26.60;95.00;;;;;;5075077;28;20043;-66
2022/08/22 10:16:19;;;;;;;5.40;1.90;;;27.00;93.00;;;;;;5092747;28;20086;-66
2022/08/22 10:19:03;;;;;;;7.75;2.00;;;27.20;92.30;;;;;;5074669;28;20036;-66
2022/08/22 10:21:40;;;;;;;7.32;2.28;;;27.60;91.90;;;;;;5074615;28;20322;-66
2022/08/22 10:24:37;;;;;;;6.38;2.28;;;27.80;91.20;;;;;;5092880;28;20047;-67
2022/08/22 10:27:12;;;;;;;5.53;1.73;;;27.90;90.20;;;;;;5074516;28;20099;-67
2022/08/22 10:30:10;;;;;;;7.68;2.20;;;28.10;87.60;;;;;;5074478;28;20098;-66
2022/08/22 10:32:50;;;;;;;6.00;1.83;;;27.70;84.90;;;;;;5093126;28;20036;-67
2022/08/22 10:35:43;;;;;;;5.47;1.88;;;27.40;88.00;;;;;;5092744;28;20377;-66
2022/08/22 10:38:15;;;;;;;6.90;1.60;;;27.70;85.20;;;;;;5074594;28;20036;-67
2022/08/22 10:40:54;;;;;;;3.42;1.80;;;28.00;89.30;;;;;;5092712;28;20051;-66
2022/08/22 10:43:28;;;;;;;5.97;1.83;;;28.50;87.50;;;;;;5073449;28;20507;-67
2022/08/22 10:46:24;;;;;;;8.10;2.08;;;28.70;84.60;;;;;;5092526;28;20083;-67
2022/08/22 10:49:00;;;;;;;5.95;1.50;;;28.90;81.00;;;;;;5061452;28;20048;-68
2022/08/22 10:51:33;;;;;;;5.13;1.45;;;29.00;79.30;;;;;;5075190;28;20047;-67
2022/08/22 10:54:26;;;;;;;5.93;1.70;;;29.10;76.20;;;;;;5058696;28;20039;-68
2022/08/22 10:57:16;;;;;;;6.70;2.60;;;29.00;72.10;;;;;;5093211;28;20058;-67
2022/08/22 10:59:48;;;;;;;4.03;1.55;;;28.10;74.80;;;;;;5058329;28;20138;-66
2022/08/22 11:02:22;;;;;;;5.47;1.70;;;27.40;76.60;;;;;;5093291;28;20074;-66
2022/08/22 11:05:05;;;;;;;4.43;1.60;;;27.00;77.30;;;;;;5093307;28;20087;-66
2022/08/22 11:07:54;;;;;;;4.50;1.60;;;27.20;78.10;;;;;;5093248;28;20040;-67
2022/08/22 11:10:46;;;;;;;6.07;1.90;;;27.50;74.40;;;;;;5074910;28;20044;-66
2022/08/22 11:13:35;;;;;;;5.40;1.60;;;27.90;77.90;;;;;;5092138;28;20050;-67
2022/08/22 11:16:14;;;;;;;7.35;2.00;;;28.30;76.60;;;;;;5058315;28;20059;-67
2022/08/22 11:19:02;;;;;;;5.82;1.75;;;28.70;74.60;;;;;;5075182;28;20131;-67
2022/08/22 11:21:56;;;;;;;6.88;1.30;;;28.90;72.50;;;;;;5092737;28;20039;-66
2022/08/22 11:24:50;;;;;;;4.18;2.08;;;29.10;69.70;;;;;;5093056;28;20052;-66
2022/08/22 11:27:38;;;;;;;7.15;1.92;;;29.10;70.10;;;;;;5074939;28;20039;-67
2022/08/22 11:30:26;;;;;;;6.77;1.80;;;29.20;71.10;;;;;;5075107;28;20123;-67
2022/08/22 11:33:00;;;;;;;5.65;1.67;;;29.10;70.70;;;;;;5092798;28;20085;-66
2022/08/22 11:35:53;;;;;;;5.80;1.90;;;29.00;70.30;;;;;;5092630;28;20032;-66
2022/08/22 11:38:27;;;;;;;3.65;1.60;;;28.80;70.70;;;;;;5074820;28;20055;-66
2022/08/22 11:41:16;;;;;;;4.97;1.40;;;28.50;69.50;;;;;;5095396;28;20036;-68
2022/08/22 11:44:00;;;;;;;5.55;1.75;;;28.20;70.10;;;;;;5078627;28;20052;-67
2022/08/22 11:47:01;;;;;;;6.60;1.65;;;28.10;71.70;;;;;;5096773;28;20353;-67
2022/08/22 11:50:00;;;;;;;5.75;1.50;;;28.10;72.00;;;;;;5092165;28;20044;-67
2022/08/22 11:52:56;;;;;;;5.35;1.80;;;28.10;72.10;;;;;;5078440;28;20040;-67
2022/08/22 11:55:48;;;;;;;4.88;1.70;;;28.10;69.80;;;;;;5096363;28;20082;-67
2022/08/22 11:58:48;;;;;;;5.95;1.60;;;27.90;72.10;;;;;;5078381;28;20174;-67
2022/08/22 12:01:20;;;;;;;4.88;1.40;;;27.70;69.70;;;;;;5078447;28;20369;-66
2022/08/22 12:04:04;;;;;;;4.97;1.70;;;27.40;69.60;;;;;;5078392;28;20040;-68
2022/08/22 12:06:45;;;;;;;5.00;1.55;;;27.20;70.30;;;;;;5078080;28;20036;-67
2022/08/22 12:09:31;;;;;;;5.05;1.45;;;27.00;70.10;;;;;;5077404;28;20056;-68
2022/08/22 12:12:15;;;;;;;5.85;1.90;;;26.80;70.50;;;;;;5058931;28;20059;-67
2022/08/22 12:15:16;;;;;;;4.68;1.65;;;26.40;69.80;;;;;;5078148;28;20040;-67
2022/08/22 12:17:45;;;;;;;4.57;1.63;;;25.90;71.60;;;;;;5091705;28;20075;-68
2022/08/22 12:20:32;;;;;;;3.65;1.70;;;25.90;73.50;;;;;;5077663;28;20128;-67
2022/08/22 12:23:33;;;;;;;4.57;1.67;;;26.20;74.00;;;;;;5092310;28;20399;-67
2022/08/22 12:26:43;;;;;;;4.85;1.70;;;26.60;73.70;;;;;;5097988;28;20043;-68
2022/08/22 12:29:32;;;;;;;5.57;1.42;;;26.50;70.70;;;;;;5098423;28;20043;-67
2022/08/22 12:32:14;;;;;;;6.82;1.60;;;26.20;74.40;;;;;;5098345;28;20039;-67
2022/08/22 12:35:11;;;;;;;7.00;1.88;;;26.20;75.60;;;;;;5116344;28;20496;-66
2022/08/22 12:37:46;;;;;;;5.00;1.55;;;26.50;76.70;;;;;;5098073;28;20055;-66
2022/08/22 12:40:23;;;;;;;5.88;2.08;;;26.60;77.30;;;;;;5081163;28;20047;-66
2022/08/22 12:43:18;;;;;;;6.47;1.85;;;26.60;73.40;;;;;;5096634;28;20071;-67
2022/08/22 12:46:03;;;;;;;5.47;1.77;;;26.70;73.10;;;;;;5116274;28;20050;-66
2022/08/22 12:48:35;;;;;;;5.07;2.05;;;26.60;75.40;;;;;;5097958;28;20563;-66
2022/08/22 12:51:40;;;;;;;5.70;1.73;;;26.60;77.00;;;;;;5114805;28;20040;-66
2022/08/22 12:54:21;;;;;;;8.63;1.75;;;26.60;79.40;;;;;;5056886;28;20096;-66
2022/08/22 12:57:10;;;;;;;5.72;1.60;;;26.60;73.60;;;;;;5115905;28;20122;-67
2022/08/22 12:59:42;;;;;;;6.70;1.55;;;26.60;72.10;;;;;;5115501;28;20043;-66
2022/08/22 13:02:17;;;;;;;5.55;1.92;;;26.50;72.50;;;;;;5097370;28;20051;-66
2022/08/22 13:04:55;;;;;;;6.75;1.70;;;26.40;70.40;;;;;;5104875;28;20116;-66
2022/08/22 13:07:33;;;;;;;6.40;1.95;;;26.10;71.20;;;;;;5065030;28;20068;-67
2022/08/22 13:10:13;;;;;;;5.40;2.05;;;25.80;70.40;;;;;;5098419;28;20030;-68
2022/08/22 13:12:46;;;;;;;5.38;2.05;;;25.50;69.50;;;;;;5094893;28;20059;-68
2022/08/22 13:15:30;;;;;;;5.45;1.95;;;25.30;72.20;;;;;;5115515;28;20123;-68
2022/08/22 13:18:01;;;;;;;4.93;1.95;;;25.10;74.80;;;;;;5097247;28;20055;-67
2022/08/22 13:20:37;;;;;;;5.15;2.20;;;25.00;75.90;;;;;;5115221;28;20058;-68
2022/08/22 13:23:19;;;;;;;6.95;2.10;;;25.00;74.70;;;;;;5115635;28;20046;-68
2022/08/22 13:26:04;;;;;;;5.03;1.92;;;24.90;74.20;;;;;;5080422;28;20192;-68
2022/08/22 13:28:34;;;;;;;6.72;2.03;;;24.90;75.60;;;;;;5115430;28;20032;-68
2022/08/22 13:31:02;;;;;;;9.30;2.75;;;25.10;76.60;;;;;;5097035;28;20050;-67
2022/08/22 13:33:34;;;;;;;7.72;2.08;;;25.30;77.30;;;;;;5115517;28;20118;-68
2022/08/22 13:36:05;;;;;;;8.20;2.45;;;25.30;76.00;;;;;;5115026;28;20048;-68
2022/08/22 13:38:43;;;;;;;6.97;2.20;;;25.20;75.80;;;;;;5097166;28;20510;-68
2022/08/22 13:41:09;;;;;;;6.60;2.10;;;25.10;77.70;;;;;;5094522;28;20051;-68
2022/08/22 13:44:00;;;;;;;5.57;2.20;;;25.10;78.00;;;;;;5115020;28;20043;-68
2022/08/22 13:46:31;;;;;;;8.85;2.47;;;25.20;79.80;;;;;;5096930;28;20131;-69
2022/08/22 13:49:00;;;;;;;8.55;2.10;;;25.30;80.20;;;;;;5079772;28;20503;-68
2022/08/22 13:51:47;;;;;;;6.68;2.60;;;25.50;78.90;;;;;;5115055;28;20036;-68
2022/08/22 13:54:32;;;;;;;10.77;2.45;;;25.50;77.90;;;;;;5114616;28;20482;-68
2022/08/22 13:57:25;;;;;;;8.18;2.33;;;25.40;78.50;;;;;;5114744;28;20477;-68